Flight Track Log - Related Links

Times and Time Zones

All times are in EDT time to prevent confusion due to time zone crossing. See the SWA311 flight status page for this flight to view local times or setup timezone preferences in your user account.

Time Position Orientation Groundspeed Altitude Reporting Facility
EDT Latitude Longitude Course Direction KTS MPH feet Rate Location/Type
Sun 06:17:34 PM 40.3561 -80.1472 211° Southwest 265 305 8,100  Level Cleveland Center
Sun 06:18:34 PM 40.2850 -80.1231 165° South 270 311 11,800 2,975 Climbing Cleveland Center
Sun 06:19:33 PM 40.2100 -80.0939 163° South 304 350 14,000 1,250 Climbing Cleveland Center
Sun 06:20:34 PM 40.1203 -80.0619 165° South 334 384 14,300 1,650 Climbing Cleveland Center
Sun 06:21:00 PM 40.2578 -79.5673 163° South  Level Estimated
Sun 06:21:33 PM 40.0656 -79.9536 123° Southeast 329 379 17,300  Level Cleveland Center
Sun 06:22:00 PM 40.2185 -79.4568 164° South  Level Estimated
Sun 06:22:34 PM 40.0250 -79.8186 111° Southeast 353 406 20,300  Level Cleveland Center
Sun 06:23:00 PM 40.1387 -79.5196 211° Southwest  Level FlightAware Approximate
Sun 06:23:34 PM 39.9844 -79.6861 112° Southeast 372 428 23,000  Level Cleveland Center
Sun 06:24:34 PM 39.9417 -79.5542 113° Southeast 388 447 23,000  Level Cleveland Center
Sun 06:25:34 PM 39.8964 -79.4142 113° Southeast 406 467 23,000  Level Cleveland Center
Sun 06:26:50 PM 39.8439 -79.2425 112° Southeast 415 478 23,000  Level Washington Center
Sun 06:27:50 PM 39.7942 -79.0942 114° Southeast 428 493 23,000  Level Washington Center
Sun 06:28:48 PM 39.7483 -78.9436 112° Southeast 440 506 23,000  Level Washington Center
Sun 06:29:49 PM 39.6983 -78.7900 113° Southeast 452 520 23,000  Level Washington Center
Sun 06:30:49 PM 39.6519 -78.6506 113° Southeast 440 506 23,000  Level Washington Center
Sun 06:31:49 PM 39.6056 -78.5111 113° Southeast 421 484 23,000 -1,736 Level Washington Center
Sun 06:32:50 PM 39.5608 -78.3747 113° Southeast 416 479 19,500 -3,328 Descending Washington Center
Sun 06:33:48 PM 39.5178 -78.2414 113° Southeast 416 479 16,400 -2,288 Descending Washington Center
Sun 06:34:48 PM 39.4728 -78.1161 115° Southeast 401 461 15,000 -1,140 Descending Washington Center
Sun 06:35:49 PM 39.4522 -77.9889 102° East 380 437 14,100 -934 Descending Washington Center
Sun 06:36:50 PM 39.4486 -77.8544 92° East 362 417 13,100 -1,008 Descending Washington Center
Sun 06:37:48 PM 39.4469 -77.7147 91° East 362 417 12,100 -1,017 Descending Washington Center
Sun 06:38:48 PM 39.4472 -77.5856 90° East 357 411 11,100 -496 Descending Washington Center
Sun 06:39:49 PM 39.4450 -77.4672 91° East 344 396 11,100  Level Washington Center
Sun 06:40:49 PM 39.4444 -77.3544 90° East 327 376 11,100 -50 Level Washington Center
Sun 06:41:50 PM 39.4667 -77.2333 77° East 314 361 11,000 -942 Descending Potomac TRACON
Sun 06:42:50 PM 39.4833 -77.1333 78° East 323 372 9,200 -1,579 Descending Potomac TRACON
Sun 06:43:44 PM 39.4833 -77.0333 90° East 312 359 8,000 -1,158 Descending Potomac TRACON
Sun 06:44:44 PM 39.4667 -76.9333 102° East 279 321 7,000 -1,105 Descending Potomac TRACON
Sun 06:45:38 PM 39.4333 -76.8667 123° Southeast 260 299 5,900 -1,421 Descending Potomac TRACON
Sun 06:46:38 PM 39.3667 -76.9167 210° Southwest 256 295 4,300 -950 Descending Potomac TRACON
Sun 06:47:38 PM 39.3167 -76.9833 226° Southwest 236 272 4,000 -238 Descending Potomac TRACON
Sun 06:48:44 PM 39.2667 -76.9667 166° South 227 261 3,800 -600 Descending Potomac TRACON
Sun 06:49:38 PM 39.2333 -76.9167 131° Southeast 220 253 2,800 -1,148 Descending Potomac TRACON
Sun 06:50:39 PM 39.2000 -76.8500 123° Southeast 223 257 1,600 -645 Descending Potomac TRACON
Sun 06:51:39 PM 39.1833 -76.7833 108° East 173 199 1,500 -400 Descending Potomac TRACON
Sun 06:52:39 PM 39.1833 -76.7333 90° East 132 152 800 -700 Descending Potomac TRACON
Sun 06:54:00 PM 39.1667 -76.6667 103° East  Level FlightAware Approximate
Sun 07:01:00 PM 39.1754 -76.6683 103° East  Level Estimated
Sun 07:02:00 PM 39.1754 -76.6683 103° East  Level Estimated
Sun 07:03:00 PM 39.1754 -76.6683 103° East  Level Estimated

Login

Don't have an account? Register now (free) for customized features, flight alerts, and more!